createdAt,value
2018-09-06T00:00:20.891Z,11.43
2018-09-06T00:03:23.091Z,10.53
2018-09-06T00:06:25.325Z,10.40
2018-09-06T00:09:27.639Z,9.73
2018-09-06T00:12:29.887Z,10.83
2018-09-06T00:15:32.212Z,10.93
2018-09-06T00:18:34.552Z,10.33
2018-09-06T00:21:36.790Z,10.83
2018-09-06T00:24:39.083Z,11.17
2018-09-06T00:27:41.418Z,10.87
2018-09-06T00:30:43.632Z,11.17
2018-09-06T00:33:45.894Z,11.50
2018-09-06T00:36:48.221Z,11.13
2018-09-06T00:39:50.402Z,11.40
2018-09-06T00:42:52.665Z,11.73
2018-09-06T00:45:54.949Z,11.73
2018-09-06T00:48:57.162Z,11.90
2018-09-06T00:51:59.590Z,11.07
2018-09-06T00:55:01.902Z,11.10
2018-09-06T00:58:04.194Z,12.07
2018-09-06T01:01:06.438Z,11.80
2018-09-06T01:04:08.641Z,11.97
2018-09-06T01:07:10.950Z,11.23
2018-09-06T01:10:13.901Z,13.20
2018-09-06T01:13:16.124Z,12.03
2018-09-06T01:16:18.536Z,11.97
2018-09-06T01:19:20.899Z,12.17
2018-09-06T01:22:23.435Z,13.33
2018-09-06T01:25:30.377Z,12.33
2018-09-06T01:28:32.693Z,12.90
2018-09-06T01:31:34.968Z,12.50
2018-09-06T01:34:37.256Z,13.27
2018-09-06T01:37:39.527Z,12.30
2018-09-06T01:40:41.863Z,11.93
2018-09-06T01:43:44.277Z,12.57
2018-09-06T01:46:46.474Z,12.90
2018-09-06T01:49:48.669Z,12.27
2018-09-06T01:52:50.887Z,13.00
2018-09-06T01:55:53.172Z,12.60
2018-09-06T01:58:55.675Z,12.87
2018-09-06T02:01:58.122Z,12.87
2018-09-06T02:05:00.386Z,13.37
2018-09-06T02:08:03.022Z,12.67
2018-09-06T02:11:05.247Z,13.60
2018-09-06T02:14:07.593Z,12.90
2018-09-06T02:17:09.946Z,11.53
2018-09-06T02:20:12.160Z,12.07
2018-09-06T02:23:14.530Z,12.27
2018-09-06T02:26:16.847Z,12.20
2018-09-06T02:29:19.150Z,13.23
2018-09-06T02:32:21.383Z,13.03
2018-09-06T02:35:23.705Z,12.87
2018-09-06T02:38:25.917Z,12.43
2018-09-06T02:41:28.234Z,11.80
2018-09-06T02:44:30.507Z,11.00
2018-09-06T02:47:37.666Z,12.20
2018-09-06T02:50:45.405Z,12.50
2018-09-06T02:53:47.857Z,11.50
2018-09-06T02:56:50.202Z,11.33
2018-09-06T02:59:52.559Z,11.40
2018-09-06T03:02:54.826Z,12.47
2018-09-06T03:05:57.200Z,11.97
2018-09-06T03:08:59.510Z,12.43
2018-09-06T03:12:03.340Z,13.17
2018-09-06T03:15:05.602Z,11.97
2018-09-06T03:18:07.883Z,12.80
2018-09-06T03:21:10.093Z,13.70
2018-09-06T03:24:12.400Z,13.07
2018-09-06T03:27:14.670Z,12.97
2018-09-06T03:30:17.173Z,13.43
2018-09-06T03:33:19.501Z,13.47
2018-09-06T03:36:21.824Z,12.83
2018-09-06T03:39:24.074Z,12.97
2018-09-06T03:42:26.329Z,13.57
2018-09-06T03:45:28.663Z,13.70
2018-09-06T03:48:31.116Z,13.77
2018-09-06T03:51:33.429Z,12.13
2018-09-06T03:54:35.797Z,12.23
2018-09-06T03:57:38.157Z,12.13
2018-09-06T04:00:41.121Z,12.90
2018-09-06T04:03:43.491Z,12.40
2018-09-06T04:06:46.277Z,12.63
2018-09-06T04:09:48.555Z,11.30
2018-09-06T04:12:50.827Z,11.73
2018-09-06T04:15:53.103Z,12.10
2018-09-06T04:18:55.492Z,11.50
2018-09-06T04:21:57.700Z,12.47
2018-09-06T04:25:00.062Z,12.13
2018-09-06T04:28:02.296Z,12.13
2018-09-06T04:31:04.669Z,11.67
2018-09-06T04:34:07.012Z,12.53
2018-09-06T04:37:09.191Z,11.60
2018-09-06T04:40:11.365Z,12.93
2018-09-06T04:44:38.312Z,12.30
2018-09-06T04:47:40.582Z,13.73
2018-09-06T04:50:42.853Z,12.23
2018-09-06T04:53:45.112Z,13.27
2018-09-06T04:56:47.559Z,12.90
2018-09-06T04:59:49.905Z,13.27
2018-09-06T05:02:52.136Z,13.03
2018-09-06T05:05:54.516Z,12.73
2018-09-06T05:08:56.821Z,12.43
2018-09-06T05:11:59.058Z,13.17
2018-09-06T05:15:01.314Z,12.37
2018-09-06T05:18:04.112Z,12.30
2018-09-06T05:21:06.418Z,11.40
2018-09-06T05:24:08.798Z,12.10
2018-09-06T05:27:11.218Z,13.33
2018-09-06T05:30:13.536Z,12.73
2018-09-06T05:33:15.895Z,12.60
2018-09-06T05:36:18.425Z,12.13
2018-09-06T05:39:20.586Z,12.73
2018-09-06T05:42:22.889Z,12.60
2018-09-06T05:45:25.285Z,12.43
2018-09-06T05:48:27.634Z,13.63
2018-09-06T05:51:29.970Z,13.57
2018-09-06T05:54:32.378Z,15.87
2018-09-06T05:57:34.717Z,15.47
2018-09-06T06:00:42.682Z,16.40
2018-09-06T06:03:45.003Z,17.87
2018-09-06T06:06:47.408Z,20.53
2018-09-06T06:09:49.719Z,22.93
2018-09-06T06:12:52.206Z,23.60
2018-09-06T06:15:54.483Z,25.77
2018-09-06T06:18:56.739Z,27.63
2018-09-06T06:21:59.165Z,28.03
2018-09-06T06:25:01.489Z,28.83
2018-09-06T06:28:03.967Z,35.13
2018-09-06T06:31:06.286Z,40.07
2018-09-06T06:34:08.596Z,44.50
2018-09-06T06:37:10.866Z,44.87
2018-09-06T06:40:13.230Z,47.63
2018-09-06T06:43:15.461Z,45.43
2018-09-06T06:46:17.918Z,48.87
2018-09-06T06:49:20.078Z,39.20
2018-09-06T06:52:22.281Z,31.87
2018-09-06T06:55:24.557Z,31.63
2018-09-06T06:58:26.857Z,31.70
2018-09-06T07:01:29.133Z,32.87
2018-09-06T07:04:31.486Z,34.27
2018-09-06T07:07:33.635Z,34.70
2018-09-06T07:10:36.154Z,36.13
2018-09-06T07:13:38.289Z,36.43
2018-09-06T07:16:40.536Z,36.37
2018-09-06T07:19:42.692Z,38.90
2018-09-06T07:22:44.919Z,37.13
2018-09-06T07:25:47.234Z,39.57
2018-09-06T07:28:49.521Z,38.40
2018-09-06T07:31:51.816Z,38.50
2018-09-06T07:34:54.274Z,35.60
2018-09-06T07:37:56.485Z,37.43
2018-09-06T07:40:58.805Z,36.67
2018-09-06T07:44:01.070Z,37.83
2018-09-06T07:47:03.354Z,37.70
2018-09-06T07:50:05.671Z,34.40
2018-09-06T07:53:07.915Z,34.03
2018-09-06T07:56:10.290Z,33.87
2018-09-06T07:59:12.618Z,34.27
2018-09-06T08:02:14.944Z,32.13
2018-09-06T08:05:17.255Z,35.00
2018-09-06T08:08:19.574Z,33.43
2018-09-06T08:11:21.929Z,35.00
2018-09-06T08:14:24.209Z,34.43
2018-09-06T08:17:26.494Z,36.67
2018-09-06T08:20:28.771Z,37.30
2018-09-06T08:26:26.135Z,36.97
2018-09-06T08:29:28.410Z,37.00
2018-09-06T08:32:30.736Z,35.07
2018-09-06T08:35:33.072Z,35.97
2018-09-06T08:38:35.553Z,36.70
2018-09-06T08:41:38.638Z,36.27
2018-09-06T08:44:40.982Z,37.33
2018-09-06T08:47:43.220Z,36.90
2018-09-06T08:50:45.495Z,36.03
2018-09-06T08:53:47.778Z,36.33
2018-09-06T08:56:50.064Z,36.07
2018-09-06T08:59:52.313Z,35.47
2018-09-06T09:02:54.815Z,35.63
2018-09-06T09:05:57.056Z,32.83
2018-09-06T09:08:59.341Z,33.03
2018-09-06T09:12:01.383Z,32.17
2018-09-06T09:15:03.693Z,32.57
2018-09-06T09:18:05.976Z,32.97
2018-09-06T09:21:08.294Z,34.40
2018-09-06T09:24:10.645Z,32.70
2018-09-06T09:27:13.104Z,34.23
2018-09-06T09:30:15.475Z,33.10
2018-09-06T09:33:17.829Z,32.13
2018-09-06T09:36:20.127Z,29.63
2018-09-06T09:39:22.400Z,31.23
2018-09-06T09:42:24.789Z,29.93
2018-09-06T09:45:27.143Z,27.93
2018-09-06T09:48:29.383Z,27.10
2018-09-06T09:51:31.720Z,23.63
2018-09-06T09:54:34.070Z,25.80
2018-09-06T09:57:36.673Z,26.27
2018-09-06T10:00:40.439Z,27.53
2018-09-06T10:03:48.503Z,23.17
2018-09-06T10:06:56.459Z,22.47
2018-09-06T10:09:58.733Z,16.97
2018-09-06T10:13:01.035Z,19.30
2018-09-06T10:16:04.406Z,17.80
2018-09-06T10:19:06.745Z,17.40
2018-09-06T10:22:09.017Z,17.77
2018-09-06T10:25:11.311Z,17.77
2018-09-06T10:28:13.701Z,19.77
2018-09-06T10:31:15.888Z,20.27
2018-09-06T10:34:18.085Z,17.83
2018-09-06T10:37:20.332Z,19.67
2018-09-06T10:40:22.907Z,18.27
2018-09-06T10:43:25.251Z,20.23
2018-09-06T10:46:27.573Z,22.67
2018-09-06T10:49:29.990Z,21.33
2018-09-06T10:52:32.274Z,19.57
2018-09-06T10:55:34.514Z,20.67
2018-09-06T10:58:36.865Z,20.40
2018-09-06T11:01:39.036Z,21.53
2018-09-06T11:04:42.050Z,22.50
2018-09-06T11:07:44.386Z,21.97
2018-09-06T11:10:46.834Z,20.77
2018-09-06T11:13:49.058Z,19.10
2018-09-06T11:16:51.309Z,18.33
2018-09-06T11:19:53.490Z,16.17
2018-09-06T11:22:55.741Z,15.97
2018-09-06T11:25:58.132Z,15.70
2018-09-06T11:29:00.666Z,15.70
2018-09-06T11:32:02.891Z,15.03
2018-09-06T11:35:05.216Z,14.70
2018-09-06T11:38:07.439Z,15.07
2018-09-06T11:41:09.877Z,15.53
2018-09-06T11:44:12.166Z,14.80
2018-09-06T11:47:15.536Z,15.87
2018-09-06T11:50:17.776Z,15.67
2018-09-06T11:53:20.462Z,17.40
2018-09-06T11:56:22.761Z,19.17
2018-09-06T11:59:25.071Z,16.03
2018-09-06T12:02:27.471Z,19.40
2018-09-06T12:05:29.840Z,16.73
2018-09-06T12:08:32.386Z,18.53
2018-09-06T12:11:35.040Z,18.23
2018-09-06T12:14:37.411Z,16.77
2018-09-06T12:17:39.797Z,15.47
2018-09-06T12:20:42.055Z,14.97
2018-09-06T12:23:44.443Z,14.20
2018-09-06T12:26:46.983Z,15.13
2018-09-06T12:29:49.328Z,15.53
2018-09-06T12:32:51.682Z,15.53
2018-09-06T12:35:54.119Z,16.70
2018-09-06T12:38:57.512Z,16.10
2018-09-06T12:41:59.955Z,15.53
2018-09-06T12:45:02.536Z,15.53
2018-09-06T12:48:05.269Z,15.10
2018-09-06T12:51:07.033Z,14.53
2018-09-06T12:54:09.356Z,13.70
2018-09-06T12:57:11.719Z,13.90
2018-09-06T13:00:14.074Z,14.07
2018-09-06T13:03:16.403Z,13.37
2018-09-06T13:06:18.928Z,12.27
2018-09-06T13:09:21.292Z,13.10
2018-09-06T13:12:23.681Z,13.30
2018-09-06T13:15:26.073Z,12.93
2018-09-06T13:18:28.412Z,11.40
2018-09-06T13:21:30.815Z,11.93
2018-09-06T13:24:33.172Z,11.47
2018-09-06T13:27:35.567Z,11.53
2018-09-06T13:30:38.128Z,11.27
2018-09-06T13:33:40.557Z,11.63
2018-09-06T13:36:42.928Z,12.03
2018-09-06T13:39:45.401Z,11.23
2018-09-06T13:42:47.682Z,11.33
2018-09-06T13:45:50.021Z,11.60
2018-09-06T13:48:52.444Z,11.57
2018-09-06T13:51:54.785Z,11.53
2018-09-06T13:54:57.407Z,10.83
2018-09-06T13:57:59.962Z,11.10
2018-09-06T14:01:02.354Z,11.00
2018-09-06T14:04:04.775Z,11.23
2018-09-06T14:07:07.239Z,10.80
2018-09-06T14:10:09.688Z,12.33
2018-09-06T14:13:11.940Z,12.10
2018-09-06T14:16:14.328Z,12.07
2018-09-06T14:19:16.829Z,12.83
2018-09-06T14:22:19.317Z,11.40
2018-09-06T14:25:21.639Z,11.80
2018-09-06T14:28:23.904Z,12.50
2018-09-06T14:31:26.173Z,11.50
2018-09-06T14:34:28.453Z,12.67
2018-09-06T14:37:30.769Z,12.53
2018-09-06T14:47:23.767Z,13.20
2018-09-06T14:50:26.352Z,14.23
2018-09-06T14:53:28.804Z,14.27
2018-09-06T14:56:31.119Z,11.40
2018-09-06T14:59:33.417Z,12.80
2018-09-06T15:02:35.771Z,12.07
2018-09-06T15:05:38.182Z,11.93
2018-09-06T15:08:40.545Z,11.20
2018-09-06T15:11:42.937Z,10.33
2018-09-06T15:14:45.237Z,10.80
2018-09-06T15:17:47.624Z,9.97
2018-09-06T15:20:50.008Z,9.50
2018-09-06T15:23:52.323Z,9.87
2018-09-06T15:26:54.621Z,10.30
2018-09-06T15:29:56.887Z,9.87
2018-09-06T15:32:59.094Z,9.87
2018-09-06T15:36:01.488Z,10.50
2018-09-06T15:39:05.499Z,10.97
2018-09-06T15:42:08.192Z,10.17
2018-09-06T15:45:10.564Z,10.33
2018-09-06T15:48:12.838Z,10.57
2018-09-06T15:51:15.193Z,10.13
2018-09-06T15:54:17.505Z,10.90
2018-09-06T15:57:19.799Z,10.37
2018-09-06T16:00:22.087Z,10.43
2018-09-06T16:03:24.439Z,10.67
2018-09-06T16:06:26.974Z,10.60
2018-09-06T16:09:29.327Z,9.80
2018-09-06T16:12:31.704Z,9.83
2018-09-06T16:15:34.031Z,10.23
2018-09-06T16:18:36.325Z,10.00
2018-09-06T16:21:38.510Z,10.03
2018-09-06T16:24:40.856Z,9.63
2018-09-06T16:27:43.460Z,8.70
2018-09-06T16:30:46.122Z,9.23
2018-09-06T16:33:48.418Z,8.27
2018-09-06T16:36:50.842Z,9.07
2018-09-06T16:39:53.413Z,9.47
2018-09-06T16:42:55.723Z,9.60
2018-09-06T16:45:58.201Z,10.00
2018-09-06T16:49:00.566Z,10.87
2018-09-06T16:52:02.962Z,10.93
2018-09-06T16:55:05.761Z,11.97
2018-09-06T16:58:08.005Z,12.87
2018-09-06T17:01:11.035Z,13.00
2018-09-06T17:04:13.272Z,13.47
2018-09-06T17:07:15.776Z,12.53
2018-09-06T17:10:18.131Z,12.10
2018-09-06T17:13:20.497Z,12.07
2018-09-06T17:16:22.853Z,13.23
2018-09-06T17:19:25.250Z,13.47
2018-09-06T17:22:27.717Z,13.80
2018-09-06T17:25:30.034Z,13.97
2018-09-06T17:28:32.360Z,15.23
2018-09-06T17:31:34.575Z,15.03
2018-09-06T17:34:36.809Z,15.50
2018-09-06T17:37:39.190Z,16.40
2018-09-06T17:40:41.393Z,16.73
2018-09-06T17:43:44.858Z,18.63
2018-09-06T17:46:48.235Z,18.67
2018-09-06T17:49:50.900Z,18.60
2018-09-06T17:52:53.301Z,17.93
2018-09-06T17:55:55.497Z,16.93
2018-09-06T17:58:57.893Z,18.60
2018-09-06T18:02:00.215Z,18.83
2018-09-06T18:05:02.540Z,21.07
2018-09-06T18:08:05.287Z,22.13
2018-09-06T18:11:08.034Z,21.73
2018-09-06T18:14:10.544Z,23.47
2018-09-06T18:17:12.927Z,21.83
2018-09-06T18:20:15.303Z,23.07
2018-09-06T18:23:17.726Z,20.87
2018-09-06T18:26:20.752Z,21.87
2018-09-06T18:29:23.114Z,23.43
2018-09-06T18:32:25.564Z,23.77
2018-09-06T18:35:27.842Z,25.70
2018-09-06T18:38:30.056Z,26.57
2018-09-06T18:41:32.451Z,26.10
2018-09-06T18:44:38.289Z,27.57
2018-09-06T18:47:41.672Z,27.57
2018-09-06T18:50:44.100Z,29.50
2018-09-06T18:53:46.344Z,28.13
2018-09-06T18:56:48.801Z,26.93
2018-09-06T18:59:51.170Z,27.43
2018-09-06T19:02:53.736Z,27.47
2018-09-06T19:05:56.008Z,27.90
2018-09-06T19:08:58.254Z,28.23
2018-09-06T19:12:00.540Z,28.27
2018-09-06T19:15:02.976Z,28.57
2018-09-06T19:18:05.342Z,29.03
2018-09-06T19:21:07.895Z,27.97
2018-09-06T19:24:10.298Z,29.03
2018-09-06T19:27:12.711Z,28.77
2018-09-06T19:30:15.087Z,29.20
2018-09-06T19:33:17.357Z,28.53
2018-09-06T19:36:19.872Z,29.70
2018-09-06T19:39:22.362Z,29.53
2018-09-06T19:42:24.849Z,28.93
2018-09-06T19:45:27.210Z,30.50
2018-09-06T19:48:29.561Z,30.00
2018-09-06T19:51:31.793Z,29.10
2018-09-06T19:54:34.054Z,31.37
2018-09-06T19:57:36.507Z,30.57
2018-09-06T20:00:38.823Z,29.50
2018-09-06T20:03:41.085Z,30.90
2018-09-06T20:06:43.320Z,31.97
2018-09-06T20:09:45.685Z,31.03
2018-09-06T20:12:48.792Z,32.67
2018-09-06T20:15:51.092Z,31.63
2018-09-06T20:18:53.388Z,33.97
2018-09-06T20:21:55.645Z,33.53
2018-09-06T20:24:57.984Z,32.47
2018-09-06T20:28:00.302Z,32.53
2018-09-06T20:31:02.526Z,33.33
2018-09-06T20:34:04.760Z,31.20
2018-09-06T20:37:07.030Z,30.80
2018-09-06T20:40:09.300Z,32.67
2018-09-06T20:43:11.616Z,32.10
2018-09-06T20:46:13.832Z,33.47
2018-09-06T20:49:16.104Z,33.00
2018-09-06T20:52:18.417Z,33.97
2018-09-06T20:55:20.765Z,34.90
2018-09-06T20:58:22.971Z,32.60
2018-09-06T21:01:25.262Z,33.23
2018-09-06T21:04:27.460Z,32.87
2018-09-06T21:07:29.721Z,31.37
2018-09-06T21:10:32.077Z,32.40
2018-09-06T21:13:34.332Z,32.50
2018-09-06T21:16:36.629Z,31.47
2018-09-06T21:19:38.943Z,31.50
2018-09-06T21:22:41.228Z,31.57
2018-09-06T21:25:43.603Z,30.63
2018-09-06T21:28:45.980Z,31.07
2018-09-06T21:31:48.327Z,30.73
2018-09-06T21:34:50.785Z,31.10
2018-09-06T21:37:53.250Z,30.97
2018-09-06T21:40:55.609Z,32.17
2018-09-06T21:43:57.968Z,33.90
2018-09-06T21:47:00.334Z,33.33
2018-09-06T21:50:02.734Z,33.93
2018-09-06T21:53:05.080Z,34.13
2018-09-06T21:56:07.394Z,33.57
2018-09-06T21:59:09.635Z,33.30
2018-09-06T22:02:17.733Z,33.90
2018-09-06T22:05:20.041Z,38.40
2018-09-06T22:08:22.280Z,34.90
2018-09-06T22:11:24.546Z,35.50
2018-09-06T22:14:26.890Z,37.20
2018-09-06T22:17:29.096Z,38.10
2018-09-06T22:20:31.473Z,38.53
2018-09-06T22:23:33.864Z,38.37
2018-09-06T22:26:36.152Z,39.90
2018-09-06T22:29:38.592Z,42.27
2018-09-06T22:32:41.047Z,39.33
2018-09-06T22:35:43.300Z,40.57
2018-09-06T22:38:45.563Z,40.33
2018-09-06T22:41:47.809Z,39.00
2018-09-06T22:44:50.136Z,39.40
2018-09-06T22:47:52.402Z,38.73
2018-09-06T22:50:54.704Z,37.33
2018-09-06T22:53:56.997Z,36.97
2018-09-06T22:56:59.372Z,36.40
2018-09-06T23:00:01.936Z,36.93
2018-09-06T23:03:09.901Z,36.23
2018-09-06T23:06:12.302Z,35.40
2018-09-06T23:09:14.665Z,35.77
2018-09-06T23:12:16.938Z,35.17
2018-09-06T23:15:19.272Z,35.30
2018-09-06T23:18:21.519Z,35.50
2018-09-06T23:21:23.856Z,34.40
2018-09-06T23:24:26.249Z,33.53
2018-09-06T23:27:28.547Z,33.03
2018-09-06T23:30:30.788Z,33.07
2018-09-06T23:33:33.145Z,32.17
2018-09-06T23:36:35.433Z,31.40
2018-09-06T23:39:37.704Z,31.73
2018-09-06T23:42:40.075Z,31.37
2018-09-06T23:45:42.430Z,31.77
2018-09-06T23:48:44.744Z,31.27
2018-09-06T23:51:47.194Z,32.70
2018-09-06T23:54:49.862Z,32.23
2018-09-06T23:57:52.094Z,33.00
